Time;durP1;ratioP1;P1;durP2;ratioP2;P2;SDS_P1;SDS_P2;PMS_P1;PMS_P2;Temp;Humidity;BMP_temperature;BMP_pressure;BME280_temperature;BME280_humidity;BME280_pressure;Samples;Min_cycle;Max_cycle;Signal;HPM_P1;HPM_P2
2022/12/20 00:00:51;;;;;;;1.95;1.50;;;;;;;;;;5033384;28;20061;-73
2022/12/20 00:03:18;;;;;;;1.55;1.33;;;;;;;;;;5033110;28;20051;-73
2022/12/20 00:05:46;;;;;;;2.00;1.50;;;;;;;;;;5033029;28;20459;-72
2022/12/20 00:08:14;;;;;;;1.83;1.50;;;12.00;60.90;;;;;;5033117;28;20501;-73
2022/12/20 00:10:41;;;;;;;1.70;1.27;;;;;;;;;;5032947;28;20056;-73
2022/12/20 00:13:08;;;;;;;1.67;1.50;;;;;;;;;;5032232;28;20504;-73
2022/12/20 00:15:35;;;;;;;2.63;1.52;;;;;;;;;;5034034;28;20512;-73
2022/12/20 00:18:02;;;;;;;2.00;1.60;;;;;;;;;;5034088;28;20053;-73
2022/12/20 00:20:29;;;;;;;1.80;1.50;;;;;;;;;;5032941;28;20063;-73
2022/12/20 00:22:56;;;;;;;2.03;1.60;;;;;;;;;;5032717;28;20482;-73
2022/12/20 00:25:24;;;;;;;2.33;1.60;;;12.00;61.10;;;;;;5034017;28;20426;-73
2022/12/20 00:27:51;;;;;;;1.90;1.55;;;;;;;;;;5033566;28;20048;-73
2022/12/20 00:30:19;;;;;;;1.58;1.30;;;;;;;;;;5032609;28;20562;-73
2022/12/20 00:32:46;;;;;;;2.83;1.58;;;;;;;;;;5032564;28;20052;-73
2022/12/20 00:35:13;;;;;;;2.30;1.45;;;;;;;;;;5033675;28;20140;-73
2022/12/20 00:37:40;;;;;;;1.95;1.40;;;;;;;;;;5047044;28;20128;-73
2022/12/20 00:40:08;;;;;;;1.75;1.38;;;;;;;;;;5052249;28;20067;-73
2022/12/20 00:42:36;;;;;;;2.33;1.60;;;;;;;;;;5053403;28;20409;-73
2022/12/20 00:45:03;;;;;;;1.52;1.33;;;;;;;;;;5032338;28;20434;-73
2022/12/20 00:47:31;;;;;;;2.35;1.70;;;;;;;;;;5036208;28;20041;-73
2022/12/20 00:49:58;;;;;;;2.60;1.80;;;;;;;;;;5052168;28;20052;-73
2022/12/20 00:52:25;;;;;;;1.50;1.40;;;;;;;;;;5052953;28;20055;-73
2022/12/20 00:54:52;;;;;;;2.65;1.50;;;;;;;;;;5037333;28;20053;-73
2022/12/20 00:57:19;;;;;;;4.75;1.70;;;;;;;;;;5031612;28;20060;-73
2022/12/20 00:59:47;;;;;;;1.50;1.40;;;12.00;61.20;;;;;;5031975;28;20140;-72
2022/12/20 01:02:14;;;;;;;1.70;1.50;;;;;;;;;;5031518;28;20057;-73
2022/12/20 01:04:41;;;;;;;1.90;1.42;;;;;;;;;;5032315;28;20056;-73
2022/12/20 01:07:09;;;;;;;1.98;1.50;;;;;;;;;;5031943;28;20061;-73
2022/12/20 01:09:37;;;;;;;1.75;1.48;;;;;;;;;;5033215;28;20049;-73
2022/12/20 01:12:04;;;;;;;2.33;1.67;;;;;;;;;;5031455;28;20057;-73
2022/12/20 01:14:31;;;;;;;1.65;1.30;;;;;;;;;;5031505;28;20132;-73
2022/12/20 01:16:59;;;;;;;1.40;1.30;;;11.90;59.90;;;;;;5031830;28;20240;-73
2022/12/20 01:19:26;;;;;;;1.95;1.42;;;;;;;;;;5031945;28;20061;-73
2022/12/20 01:21:53;;;;;;;2.35;1.48;;;;;;;;;;5031780;28;20605;-73
2022/12/20 01:24:21;;;;;;;1.50;1.30;;;;;;;;;;5032477;28;20049;-73
2022/12/20 01:26:48;;;;;;;2.00;1.55;;;;;;;;;;5031133;28;20414;-73
2022/12/20 01:29:15;;;;;;;2.22;1.40;;;;;;;;;;5032635;28;20053;-73
2022/12/20 01:31:42;;;;;;;1.58;1.40;;;;;;;;;;5032624;28;20051;-73
2022/12/20 01:34:10;;;;;;;1.80;1.50;;;12.00;61.20;;;;;;5031060;28;20505;-73
2022/12/20 01:36:37;;;;;;;2.00;1.50;;;;;;;;;;5037787;28;20140;-73
2022/12/20 01:39:05;;;;;;;2.05;1.55;;;;;;;;;;5052670;28;20460;-73
2022/12/20 01:41:32;;;;;;;1.67;1.38;;;;;;;;;;5035237;28;20056;-73
2022/12/20 01:44:00;;;;;;;1.80;1.40;;;11.90;60.40;;;;;;5035853;28;20055;-73
2022/12/20 01:46:28;;;;;;;2.25;1.55;;;;;;;;;;5051272;28;20055;-73
2022/12/20 01:48:58;;;;;;;3.03;1.55;;;11.80;61.00;;;;;;5052291;28;20049;-73
2022/12/20 01:51:27;;;;;;;1.95;1.60;;;;;;;;;;5052208;28;20057;-73
2022/12/20 01:53:55;;;;;;;1.90;1.50;;;;;;;;;;5044913;28;20054;-73
2022/12/20 01:56:22;;;;;;;1.90;1.52;;;;;;;;;;5030864;28;20562;-72
2022/12/20 01:58:49;;;;;;;1.70;1.42;;;;;;;;;;5031208;28;20143;-73
2022/12/20 02:01:16;;;;;;;1.83;1.52;;;;;;;;;;5031711;28;20050;-73
2022/12/20 02:03:43;;;;;;;1.75;1.40;;;;;;;;;;5031635;28;20045;-73
2022/12/20 02:06:14;;;;;;;1.58;1.48;;;;;;;;;;5032078;28;20140;-73
2022/12/20 02:08:43;;;;;;;1.98;1.50;;;;;;;;;;5031650;28;20046;-73
2022/12/20 02:11:14;;;;;;;1.50;1.30;;;11.80;61.00;;;;;;5030666;28;20053;-73
2022/12/20 02:13:42;;;;;;;1.45;1.23;;;;;;;;;;5031463;28;20053;-73
2022/12/20 02:16:09;;;;;;;2.10;1.63;;;;;;;;;;5030772;28;20060;-73
2022/12/20 02:18:38;;;;;;;2.17;1.40;;;11.80;61.10;;;;;;5031963;28;20059;-73
2022/12/20 02:21:18;;;;;;;3.15;1.42;;;11.80;61.20;;;;;;5030679;28;20486;-73
2022/12/20 02:24:23;;;;;;;1.80;1.40;;;11.80;61.20;;;;;;5030690;28;20398;-73
2022/12/20 02:27:06;;;;;;;1.50;1.30;;;11.70;61.00;;;;;;5031665;28;20414;-73
2022/12/20 02:29:35;;;;;;;1.88;1.30;;;11.80;60.60;;;;;;5030629;28;20057;-73
2022/12/20 02:32:03;;;;;;;1.90;1.40;;;;;;;;;;5031609;28;20060;-72
2022/12/20 02:34:31;;;;;;;1.60;1.25;;;;;;;;;;5030217;28;20132;-73
2022/12/20 02:36:59;;;;;;;1.77;1.40;;;;;;;;;;5039883;28;20137;-72
2022/12/20 02:39:26;;;;;;;2.20;1.60;;;;;;;;;;5050298;28;20104;-72
2022/12/20 02:41:53;;;;;;;1.98;1.35;;;;;;;;;;5031319;28;20053;-73
2022/12/20 02:47:08;;;;;;;2.15;1.40;;;;;;;;;;5030445;28;20518;-72
2022/12/20 02:49:37;;;;;;;1.30;1.20;;;;;;;;;;5031545;28;20049;-72
2022/12/20 02:52:04;;;;;;;1.55;1.40;;;;;;;;;;5031282;28;20136;-73
2022/12/20 02:54:31;;;;;;;1.40;1.30;;;;;;;;;;5031091;28;20056;-73
2022/12/20 02:57:00;;;;;;;2.05;1.48;;;11.70;61.10;;;;;;5031514;28;20055;-73
2022/12/20 02:59:29;;;;;;;1.50;1.35;;;11.70;61.20;;;;;;5031557;28;20088;-73
2022/12/20 03:01:56;;;;;;;1.60;1.30;;;;;;;;;;5030593;28;20394;-73
2022/12/20 03:04:26;;;;;;;1.50;1.33;;;11.70;59.20;;;;;;5029787;28;20056;-73
2022/12/20 03:06:57;;;;;;;1.70;1.42;;;11.70;61.30;;;;;;5031436;28;20045;-73
2022/12/20 03:09:24;;;;;;;1.80;1.50;;;;;;;;;;5030197;28;20486;-73
2022/12/20 03:11:51;;;;;;;2.05;1.42;;;;;;;;;;5030544;28;20506;-73
2022/12/20 03:14:18;;;;;;;1.73;1.40;;;;;;;;;;5029848;28;20060;-73
2022/12/20 03:16:46;;;;;;;1.73;1.30;;;;;;;;;;5029797;28;20060;-73
2022/12/20 03:19:13;;;;;;;1.65;1.45;;;;;;;;;;5030268;28;20572;-73
2022/12/20 03:21:41;;;;;;;1.50;1.30;;;11.70;61.40;;;;;;5032761;28;20057;-73
2022/12/20 03:24:09;;;;;;;1.70;1.38;;;;;;;;;;5033075;28;20049;-73
2022/12/20 03:26:37;;;;;;;1.80;1.30;;;;;;;;;;5034090;28;20065;-73
2022/12/20 03:29:04;;;;;;;1.75;1.50;;;;;;;;;;5034036;28;20064;-73
2022/12/20 03:31:31;;;;;;;1.42;1.30;;;;;;;;;;5033901;28;20057;-73
2022/12/20 03:33:58;;;;;;;1.83;1.35;;;;;;;;;;5034688;28;20041;-73
2022/12/20 03:36:25;;;;;;;1.65;1.30;;;;;;;;;;5037328;28;20052;-73
2022/12/20 03:38:53;;;;;;;1.58;1.30;;;;;;;;;;5044509;28;20057;-73
2022/12/20 03:41:21;;;;;;;1.60;1.30;;;;;;;;;;5033774;28;20064;-73
2022/12/20 03:43:48;;;;;;;1.77;1.48;;;;;;;;;;5033517;28;20064;-73
2022/12/20 03:46:15;;;;;;;1.40;1.30;;;;;;;;;;5033329;28;20053;-74
2022/12/20 03:48:42;;;;;;;1.73;1.35;;;;;;;;;;5034534;28;20081;-73
2022/12/20 03:51:09;;;;;;;1.48;1.30;;;;;;;;;;5034564;28;20113;-73
2022/12/20 03:53:36;;;;;;;1.73;1.42;;;;;;;;;;5032663;28;20067;-73
2022/12/20 03:56:05;;;;;;;1.73;1.23;;;11.70;61.40;;;;;;5033115;28;20060;-73
2022/12/20 03:58:32;;;;;;;1.60;1.30;;;;;;;;;;5033338;28;20057;-73
2022/12/20 04:00:59;;;;;;;1.67;1.40;;;;;;;;;;5033370;28;20049;-73
2022/12/20 04:03:26;;;;;;;1.67;1.40;;;;;;;;;;5033117;28;20053;-73
2022/12/20 04:05:53;;;;;;;1.42;1.30;;;;;;;;;;5032414;28;20053;-74
2022/12/20 04:08:20;;;;;;;2.13;1.35;;;;;;;;;;5034479;28;20060;-73
2022/12/20 04:13:33;;;;;;;2.20;1.40;;;11.70;61.50;;;;;;5033027;28;20645;-73
2022/12/20 04:16:00;;;;;;;2.08;1.58;;;;;;;;;;5032809;28;20064;-73
2022/12/20 04:18:27;;;;;;;1.52;1.30;;;;;;;;;;5032246;28;20053;-73
2022/12/20 04:20:54;;;;;;;1.65;1.30;;;;;;;;;;5033104;28;20061;-73
2022/12/20 04:23:21;;;;;;;1.52;1.30;;;;;;;;;;5032659;28;20406;-73
2022/12/20 04:25:48;;;;;;;1.67;1.40;;;;;;;;;;5033899;28;20132;-73
2022/12/20 04:28:15;;;;;;;1.40;1.30;;;;;;;;;;5032757;28;20157;-73
2022/12/20 04:30:43;;;;;;;1.70;1.30;;;;;;;;;;5032883;28;20083;-73
2022/12/20 04:33:10;;;;;;;1.70;1.40;;;;;;;;;;5040965;28;20053;-73
2022/12/20 04:35:37;;;;;;;1.38;1.27;;;;;;;;;;5052459;28;20071;-73
2022/12/20 04:38:05;;;;;;;1.40;1.30;;;;;;;;;;5052018;28;20173;-73
2022/12/20 04:40:32;;;;;;;2.08;1.42;;;;;;;;;;5052211;28;20127;-73
2022/12/20 04:42:59;;;;;;;1.92;1.40;;;;;;;;;;5051920;28;20048;-73
2022/12/20 04:45:26;;;;;;;1.40;1.30;;;;;;;;;;5048920;28;20057;-73
2022/12/20 04:47:54;;;;;;;1.30;1.20;;;;;;;;;;5030742;28;20053;-73
2022/12/20 04:50:21;;;;;;;1.85;1.30;;;;;;;;;;5031925;28;20052;-73
2022/12/20 04:55:37;;;;;;;1.55;1.38;;;;;;;;;;5010916;28;20527;-73
2022/12/20 04:58:04;;;;;;;1.33;1.20;;;;;;;;;;5012008;28;20052;-73
2022/12/20 05:00:31;;;;;;;1.85;1.40;;;;;;;;;;5023944;28;20053;-73
2022/12/20 05:02:59;;;;;;;1.83;1.40;;;;;;;;;;5032635;28;20046;-73
2022/12/20 05:05:26;;;;;;;1.33;1.20;;;;;;;;;;5033091;28;20507;-73
2022/12/20 05:07:53;;;;;;;1.55;1.30;;;;;;;;;;5032116;28;20598;-73
2022/12/20 05:10:20;;;;;;;1.60;1.35;;;;;;;;;;5032085;28;20473;-73
2022/12/20 05:12:47;;;;;;;1.30;1.20;;;;;;;;;;5032618;28;20429;-72
2022/12/20 05:15:14;;;;;;;1.95;1.40;;;;;;;;;;5013256;28;20487;-73
2022/12/20 05:17:41;;;;;;;1.60;1.30;;;;;;;;;;5012931;28;20670;-73
2022/12/20 05:20:11;;;;;;;1.20;1.10;;;11.80;61.30;;;;;;5012061;28;20058;-73
2022/12/20 05:28:07;;;;;;;1.58;1.17;;;;;;;;;;5024314;28;20045;-73
2022/12/20 05:30:34;;;;;;;1.30;1.20;;;;;;;;;;5049326;28;20135;-73
2022/12/20 05:33:01;;;;;;;1.83;1.30;;;;;;;;;;5051162;28;20059;-73
2022/12/20 05:35:30;;;;;;;1.58;1.30;;;;;;;;;;5033490;28;20049;-73
2022/12/20 05:37:57;;;;;;;1.55;1.20;;;;;;;;;;5048912;28;20144;-73
2022/12/20 05:40:24;;;;;;;1.20;1.10;;;;;;;;;;5052583;28;20045;-73
2022/12/20 05:42:51;;;;;;;1.80;1.15;;;;;;;;;;5031092;28;20057;-73
2022/12/20 05:45:18;;;;;;;1.73;1.35;;;;;;;;;;5032282;28;20053;-73
2022/12/20 05:47:45;;;;;;;1.95;1.20;;;;;;;;;;5031325;28;20063;-73
2022/12/20 05:50:12;;;;;;;1.52;1.20;;;;;;;;;;5031422;28;20057;-74
2022/12/20 05:52:41;;;;;;;1.95;1.45;;;;;;;;;;5030917;28;20059;-73
2022/12/20 05:55:09;;;;;;;1.70;1.50;;;;;;;;;;5030770;28;20418;-73
2022/12/20 05:57:36;;;;;;;1.20;1.10;;;;;;;;;;5031107;28;20057;-73
2022/12/20 06:00:03;;;;;;;1.95;1.40;;;;;;;;;;5031257;28;20053;-73
2022/12/20 06:02:30;;;;;;;1.73;1.23;;;;;;;;;;5030610;28;20111;-74
2022/12/20 06:04:58;;;;;;;1.23;1.13;;;;;;;;;;5032023;28;20079;-73
2022/12/20 06:07:25;;;;;;;1.67;1.27;;;;;;;;;;5030944;28;20057;-73
2022/12/20 06:09:53;;;;;;;1.63;1.17;;;;;;;;;;5030678;28;20060;-73
2022/12/20 06:12:20;;;;;;;1.80;1.33;;;;;;;;;;5030770;28;20056;-74
2022/12/20 06:14:47;;;;;;;1.63;1.40;;;;;;;;;;5030518;28;20053;-73
2022/12/20 06:17:14;;;;;;;1.75;1.30;;;;;;;;;;5031859;28;20132;-73
2022/12/20 06:19:42;;;;;;;1.30;1.20;;;;;;;;;;5030846;28;20053;-73
2022/12/20 06:22:09;;;;;;;1.85;1.30;;;;;;;;;;5030425;28;20105;-73
2022/12/20 06:24:36;;;;;;;1.65;1.30;;;;;;;;;;5030450;28;20056;-73
2022/12/20 06:27:05;;;;;;;1.35;1.10;;;11.80;61.60;;;;;;5051273;28;20083;-73
2022/12/20 06:29:33;;;;;;;1.63;1.33;;;;;;;;;;5050759;28;20049;-73
2022/12/20 06:32:00;;;;;;;1.30;1.20;;;;;;;;;;5050594;28;20538;-73
2022/12/20 06:34:27;;;;;;;1.70;1.48;;;;;;;;;;5051461;28;20417;-73
2022/12/20 06:36:54;;;;;;;1.30;1.20;;;;;;;;;;5041735;28;20433;-73
2022/12/20 06:39:21;;;;;;;1.70;1.20;;;;;;;;;;5030748;28;20505;-73
2022/12/20 06:41:48;;;;;;;1.33;1.20;;;;;;;;;;5030560;28;20065;-73
2022/12/20 06:44:16;;;;;;;1.73;1.10;;;;;;;;;;5030261;28;20057;-73
2022/12/20 06:46:43;;;;;;;1.45;1.27;;;;;;;;;;5030274;28;20057;-73
2022/12/20 06:49:10;;;;;;;1.50;1.13;;;;;;;;;;5031643;28;20049;-73
2022/12/20 06:51:38;;;;;;;1.67;1.20;;;;;;;;;;5030045;28;20049;-73
2022/12/20 06:54:05;;;;;;;1.25;1.10;;;;;;;;;;5030164;28;20053;-73
2022/12/20 06:56:32;;;;;;;1.63;1.20;;;;;;;;;;5032489;28;20409;-73
2022/12/20 06:58:59;;;;;;;1.58;1.10;;;;;;;;;;5035488;28;20500;-73
2022/12/20 07:01:27;;;;;;;1.30;1.10;;;;;;;;;;5034150;28;20061;-73
2022/12/20 07:03:54;;;;;;;1.35;1.25;;;;;;;;;;5033774;28;20049;-73
2022/12/20 07:06:21;;;;;;;1.17;1.08;;;;;;;;;;5034119;28;20053;-73
2022/12/20 07:08:49;;;;;;;1.20;1.10;;;;;;;;;;5034043;28;20053;-73
2022/12/20 07:11:16;;;;;;;1.83;1.15;;;;;;;;;;5034179;28;20064;-73
2022/12/20 07:13:43;;;;;;;1.45;1.20;;;;;;;;;;5033802;28;20052;-73
2022/12/20 07:16:10;;;;;;;1.25;1.10;;;;;;;;;;5033324;28;20042;-78
2022/12/20 07:18:39;;;;;;;1.27;1.17;;;;;;;;;;5033312;28;20053;-73
2022/12/20 07:21:06;;;;;;;1.30;1.20;;;;;;;;;;5035320;28;20128;-73
2022/12/20 07:23:33;;;;;;;1.45;1.27;;;;;;;;;;5035344;28;20049;-73
2022/12/20 07:26:02;;;;;;;1.48;1.20;;;;;;;;;;5029849;28;20053;-73
2022/12/20 07:28:29;;;;;;;1.50;1.20;;;;;;;;;;5033681;28;20057;-73
2022/12/20 07:31:00;;;;;;;1.33;1.10;;;12.20;61.00;;;;;;5034953;28;20053;-75
2022/12/20 07:33:27;;;;;;;1.23;1.10;;;;;;;;;;5033549;28;20279;-73
2022/12/20 07:36:01;;;;;;;1.20;1.10;;;;;;;;;;5035143;28;20508;-75
2022/12/20 07:38:29;;;;;;;1.10;1.00;;;;;;;;;;5053380;28;20576;-76
2022/12/20 07:40:56;;;;;;;1.20;1.10;;;;;;;;;;5053436;28;20060;-74
2022/12/20 07:43:23;;;;;;;1.20;1.10;;;;;;;;;;5053298;28;20048;-73
2022/12/20 07:45:54;;;;;;;1.10;1.00;;;;;;;;;;5053406;28;20053;-73
2022/12/20 07:48:22;;;;;;;1.20;1.10;;;;;;;;;;5032957;28;20064;-73
2022/12/20 07:50:49;;;;;;;1.10;1.00;;;;;;;;;;5033455;28;20502;-73
2022/12/20 07:53:18;;;;;;;1.15;1.05;;;;;;;;;;5032608;28;20057;-73
2022/12/20 07:55:45;;;;;;;1.17;1.08;;;;;;;;;;5033189;28;20055;-73
2022/12/20 07:58:12;;;;;;;1.20;1.10;;;;;;;;;;5034530;28;20472;-73
2022/12/20 08:00:39;;;;;;;1.17;1.05;;;;;;;;;;5033080;28;20410;-73
2022/12/20 08:03:06;;;;;;;1.23;1.10;;;;;;;;;;5032896;28;20384;-73
2022/12/20 08:05:34;;;;;;;1.25;1.10;;;;;;;;;;5033475;28;20057;-73
2022/12/20 08:08:01;;;;;;;1.45;1.35;;;;;;;;;;5032200;28;20554;-74
2022/12/20 08:10:29;;;;;;;1.20;1.10;;;12.60;60.30;;;;;;5033017;28;20139;-74
2022/12/20 08:12:56;;;;;;;1.10;1.00;;;;;;;;;;5031017;28;20489;-74
2022/12/20 08:15:23;;;;;;;1.25;1.15;;;;;;;;;;5032131;28;20055;-74
2022/12/20 08:17:50;;;;;;;1.23;1.10;;;;;;;;;;5032150;28;20133;-74
2022/12/20 08:20:18;;;;;;;1.40;1.10;;;;;;;;;;5026513;28;20049;-74
2022/12/20 08:22:45;;;;;;;1.27;1.17;;;;;;;;;;5042651;28;20060;-74
2022/12/20 08:25:12;;;;;;;1.65;1.00;;;;;;;;;;5038177;28;20056;-73
2022/12/20 08:27:40;;;;;;;1.98;1.00;;;12.90;60.10;;;;;;5022186;28;20065;-74
2022/12/20 08:30:09;;;;;;;1.40;1.20;;;12.90;58.20;;;;;;5024525;28;20649;-75
2022/12/20 08:32:36;;;;;;;1.30;1.00;;;;;;;;;;5031946;28;20069;-74
2022/12/20 08:35:04;;;;;;;1.17;1.08;;;;;;;;;;5024351;28;20064;-76
2022/12/20 08:37:31;;;;;;;1.58;1.20;;;;;;;;;;5038687;28;20063;-77
2022/12/20 08:39:59;;;;;;;1.25;0.90;;;;;;;;;;5042633;28;20128;-76
2022/12/20 08:42:26;;;;;;;1.10;1.00;;;;;;;;;;5051739;28;20056;-76
2022/12/20 08:44:54;;;;;;;1.38;1.10;;;13.10;59.90;;;;;;5037082;28;20041;-77
2022/12/20 08:47:21;;;;;;;1.10;1.00;;;;;;;;;;5032074;28;20053;-77
2022/12/20 08:49:48;;;;;;;1.38;1.10;;;;;;;;;;5033562;28;20060;-77
2022/12/20 08:52:15;;;;;;;1.35;1.02;;;;;;;;;;5031450;28;20053;-74
2022/12/20 08:54:42;;;;;;;1.40;1.10;;;;;;;;;;5032026;28;20059;-74
2022/12/20 08:57:09;;;;;;;1.13;1.02;;;;;;;;;;5033062;28;20132;-74
2022/12/20 08:59:36;;;;;;;1.55;1.10;;;;;;;;;;5032426;28;20139;-74
2022/12/20 09:02:05;;;;;;;1.27;1.10;;;13.10;59.90;;;;;;5031622;28;20053;-74
2022/12/20 09:04:32;;;;;;;1.17;1.08;;;;;;;;;;5031393;28;20581;-75
2022/12/20 09:06:59;;;;;;;0.98;0.93;;;;;;;;;;5031967;28;20095;-74
2022/12/20 09:09:26;;;;;;;2.08;1.10;;;;;;;;;;5031704;28;20136;-73
2022/12/20 09:11:54;;;;;;;1.25;1.05;;;;;;;;;;5032372;28;20045;-74
2022/12/20 09:14:21;;;;;;;1.20;1.10;;;;;;;;;;5039533;28;20053;-74
2022/12/20 09:16:49;;;;;;;1.05;0.98;;;;;;;;;;5036848;28;20493;-73
2022/12/20 09:19:17;;;;;;;1.23;1.10;;;;;;;;;;5031009;28;20052;-74
2022/12/20 09:21:44;;;;;;;1.10;1.00;;;;;;;;;;5031769;28;20081;-74
2022/12/20 09:24:11;;;;;;;1.50;1.10;;;;;;;;;;5032538;28;20049;-74
2022/12/20 09:26:39;;;;;;;1.45;1.10;;;;;;;;;;5031499;28;20089;-74
2022/12/20 09:29:06;;;;;;;1.10;0.90;;;;;;;;;;5031898;28;20057;-74
2022/12/20 09:31:33;;;;;;;0.90;0.90;;;;;;;;;;5031654;28;20136;-74
2022/12/20 09:34:00;;;;;;;1.55;1.05;;;;;;;;;;5031675;28;20136;-74
2022/12/20 09:36:29;;;;;;;1.00;0.90;;;;;;;;;;5034342;28;20055;-76
2022/12/20 09:38:56;;;;;;;1.20;1.10;;;;;;;;;;5030588;28;20132;-76
2022/12/20 09:41:26;;;;;;;1.13;1.00;;;;;;;;;;5030608;28;20053;-75
2022/12/20 09:43:53;;;;;;;1.10;0.90;;;;;;;;;;5031118;28;20063;-74
2022/12/20 09:46:20;;;;;;;1.73;1.00;;;;;;;;;;5031422;28;20124;-74
2022/12/20 09:48:47;;;;;;;1.17;1.08;;;;;;;;;;5032410;28;20136;-74
2022/12/20 09:51:22;;;;;;;1.10;1.00;;;13.50;59.90;;;;;;5030911;28;20137;-74
2022/12/20 09:53:54;;;;;;;1.17;0.88;;;13.50;59.80;;;;;;5030615;28;20418;-74
2022/12/20 09:56:23;;;;;;;1.25;1.00;;;13.40;59.80;;;;;;5031097;28;20383;-74
2022/12/20 09:58:57;;;;;;;1.10;0.90;;;13.50;59.80;;;;;;5031234;28;20056;-74
2022/12/20 10:01:25;;;;;;;1.33;1.10;;;;;;;;;;5031056;28;20059;-74
2022/12/20 10:03:52;;;;;;;1.10;1.00;;;;;;;;;;5030962;28;20057;-73
2022/12/20 10:06:21;;;;;;;1.20;0.93;;;;;;;;;;5032280;28;20132;-73
2022/12/20 10:08:52;;;;;;;1.05;0.95;;;;;;;;;;5029863;28;20049;-74
2022/12/20 10:11:36;;;;;;;1.10;1.00;;;13.40;59.70;;;;;;5044637;28;20056;-74
2022/12/20 10:14:06;;;;;;;1.10;1.00;;;13.40;58.40;;;;;;5050790;28;20060;-74
2022/12/20 10:16:36;;;;;;;1.10;1.00;;;;;;;;;;5050531;28;20063;-74
2022/12/20 10:19:06;;;;;;;1.80;1.10;;;;;;;;;;5050743;28;20057;-75
2022/12/20 10:21:37;;;;;;;1.10;1.00;;;13.50;58.00;;;;;;5049286;28;20454;-73
2022/12/20 10:24:08;;;;;;;1.20;1.08;;;;;;;;;;5030460;28;20071;-73
2022/12/20 10:26:35;;;;;;;1.67;1.00;;;;;;;;;;5030902;28;20085;-74
2022/12/20 10:29:02;;;;;;;1.08;0.98;;;;;;;;;;5030573;28;20533;-74
2022/12/20 10:31:29;;;;;;;1.15;1.00;;;;;;;;;;5029994;28;20489;-74
2022/12/20 10:33:57;;;;;;;1.17;1.00;;;;;;;;;;5031882;28;20443;-73
2022/12/20 10:36:25;;;;;;;1.25;0.95;;;;;;;;;;5035064;28;20410;-74
2022/12/20 10:38:53;;;;;;;1.10;1.00;;;;;;;;;;5036575;28;20170;-74
2022/12/20 10:41:22;;;;;;;1.38;1.02;;;13.60;59.80;;;;;;5030475;28;20057;-74
2022/12/20 10:43:51;;;;;;;1.00;0.93;;;13.50;59.50;;;;;;5031561;28;20124;-75
2022/12/20 10:46:18;;;;;;;1.20;1.10;;;;;;;;;;5030399;28;20525;-74
2022/12/20 10:48:46;;;;;;;0.90;0.90;;;13.50;58.20;;;;;;5030708;28;20512;-74
2022/12/20 10:51:17;;;;;;;1.10;0.98;;;;;;;;;;5030526;28;20057;-74
2022/12/20 10:53:50;;;;;;;1.13;1.00;;;;;;;;;;5029844;28;20136;-75
2022/12/20 10:56:19;;;;;;;1.23;1.10;;;13.50;59.80;;;;;;5030218;28;20489;-74
2022/12/20 10:58:53;;;;;;;1.00;1.00;;;;;;;;;;5030626;28;20403;-75
2022/12/20 11:01:29;;;;;;;2.67;1.23;;;13.40;60.00;;;;;;5043706;28;20057;-73
2022/12/20 11:04:00;;;;;;;1.35;1.10;;;;;;;;;;5049966;28;20061;-73
2022/12/20 11:06:29;;;;;;;1.15;1.05;;;13.30;59.90;;;;;;5026921;28;20050;-73
2022/12/20 11:09:11;;;;;;;1.40;1.00;;;;;;;;;;5030018;28;20057;-73
2022/12/20 11:11:38;;;;;;;1.52;1.10;;;;;;;;;;5029726;28;20414;-73
2022/12/20 11:14:13;;;;;;;1.30;0.95;;;;;;;;;;5030448;28;20409;-73
2022/12/20 11:16:41;;;;;;;1.55;1.00;;;;;;;;;;5026410;28;20063;-73
2022/12/20 11:19:29;;;;;;;1.73;1.20;;;13.40;58.30;;;;;;5028713;28;20060;-73
2022/12/20 11:21:59;;;;;;;1.30;1.02;;;13.40;58.50;;;;;;5026548;28;20045;-73
2022/12/20 11:24:30;;;;;;;1.30;0.95;;;13.30;59.10;;;;;;5022285;28;20061;-73
2022/12/20 11:27:08;;;;;;;1.40;1.08;;;13.30;58.60;;;;;;5029959;28;20060;-73
2022/12/20 11:29:41;;;;;;;1.52;1.00;;;;;;;;;;5029891;28;20061;-73
2022/12/20 11:32:09;;;;;;;0.90;0.90;;;;;;;;;;5009967;28;20060;-73
2022/12/20 11:34:38;;;;;;;1.95;1.13;;;;;;;;;;5017681;28;20056;-73
2022/12/20 11:37:19;;;;;;;2.00;1.00;;;13.30;60.40;;;;;;5033182;28;20050;-75
2022/12/20 11:39:50;;;;;;;1.20;1.10;;;;;;;;;;5029792;28;20064;-74
2022/12/20 11:42:19;;;;;;;1.17;1.08;;;13.20;60.40;;;;;;5032433;28;20497;-74
2022/12/20 11:44:54;;;;;;;1.20;1.00;;;13.20;60.50;;;;;;5033847;28;20132;-73
2022/12/20 11:47:31;;;;;;;1.33;1.05;;;13.20;60.50;;;;;;5033124;28;20045;-73
2022/12/20 11:50:04;;;;;;;1.20;1.02;;;;;;;;;;5033399;28;20132;-73
2022/12/20 11:52:35;;;;;;;1.50;1.08;;;13.30;60.10;;;;;;5019901;28;20057;-74
2022/12/20 11:55:04;;;;;;;2.30;1.00;;;;;;;;;;5033975;28;20057;-74
2022/12/20 11:57:32;;;;;;;1.45;1.10;;;;;;;;;;5032900;28;20501;-74
2022/12/20 12:00:01;;;;;;;1.27;0.98;;;13.20;60.70;;;;;;5032387;28;20455;-74
2022/12/20 12:02:29;;;;;;;1.15;1.00;;;;;;;;;;5035179;28;20071;-74
2022/12/20 12:04:57;;;;;;;0.90;0.90;;;;;;;;;;5039781;28;20049;-74
2022/12/20 12:07:25;;;;;;;1.58;0.93;;;13.10;59.40;;;;;;5033052;28;20053;-74
2022/12/20 12:09:55;;;;;;;1.00;0.90;;;13.20;60.80;;;;;;5033048;28;20061;-74
2022/12/20 12:12:24;;;;;;;1.33;1.10;;;13.00;60.80;;;;;;5032278;28;20057;-74
2022/12/20 12:14:53;;;;;;;1.10;1.00;;;;;;;;;;5032722;28;20145;-75
2022/12/20 12:17:26;;;;;;;1.70;1.17;;;13.10;60.80;;;;;;5032506;28;20049;-74
2022/12/20 12:19:53;;;;;;;1.15;1.00;;;;;;;;;;5033832;28;20050;-74
2022/12/20 12:22:22;;;;;;;1.52;1.30;;;;;;;;;;5031145;28;20064;-74
2022/12/20 12:24:51;;;;;;;1.08;0.98;;;13.10;59.80;;;;;;5031025;28;20045;-74
2022/12/20 12:27:22;;;;;;;1.10;1.00;;;13.10;60.90;;;;;;5033563;28;20483;-74
2022/12/20 12:29:49;;;;;;;1.55;1.00;;;;;;;;;;5032570;28;20496;-73
2022/12/20 12:32:18;;;;;;;1.33;0.98;;;;;;;;;;5033338;28;20053;-73
2022/12/20 12:34:52;;;;;;;1.70;1.10;;;13.00;61.10;;;;;;5033461;28;20056;-73
2022/12/20 12:37:41;;;;;;;1.60;0.90;;;13.00;61.10;;;;;;5035904;28;20042;-73
2022/12/20 12:40:22;;;;;;;1.88;1.05;;;;;;;;;;5031063;28;20088;-72
2022/12/20 12:43:15;;;;;;;1.60;0.90;;;13.10;61.00;;;;;;5031977;28;20491;-74
2022/12/20 12:45:43;;;;;;;1.33;1.02;;;;;;;;;;5031545;28;20049;-73
2022/12/20 12:48:13;;;;;;;1.40;1.20;;;;;;;;;;5031150;28;20056;-75
2022/12/20 12:50:42;;;;;;;1.20;1.10;;;13.00;61.20;;;;;;5032641;28;20662;-74
2022/12/20 12:53:12;;;;;;;1.10;1.00;;;;;;;;;;5013936;28;20049;-74
2022/12/20 12:55:45;;;;;;;1.10;1.00;;;13.00;61.20;;;;;;5029948;28;20136;-74
2022/12/20 12:58:16;;;;;;;1.02;0.93;;;;;;;;;;5031841;28;20053;-74
2022/12/20 13:00:49;;;;;;;1.23;1.10;;;;;;;;;;5050908;28;20075;-74
2022/12/20 13:03:16;;;;;;;1.48;1.15;;;;;;;;;;5051566;28;20175;-74
2022/12/20 13:05:45;;;;;;;1.15;1.05;;;;;;;;;;5043940;28;20057;-74
2022/12/20 13:08:15;;;;;;;2.38;1.00;;;;;;;;;;5032893;28;20056;-74
2022/12/20 13:11:06;;;;;;;1.27;1.10;;;;;;;;;;5031965;28;20513;-74
2022/12/20 13:13:33;;;;;;;2.10;1.20;;;;;;;;;;5031677;28;20504;-74
2022/12/20 13:16:19;;;;;;;1.45;1.10;;;;;;;;;;5031652;28;20063;-74
2022/12/20 13:19:10;;;;;;;1.98;1.15;;;13.00;57.90;;;;;;5031521;28;20045;-74
2022/12/20 13:21:39;;;;;;;1.65;1.10;;;;;;;;;;5015625;28;20473;-74
2022/12/20 13:24:55;;;;;;;1.95;1.10;;;12.90;59.60;;;;;;5011814;28;20116;-74
2022/12/20 13:27:23;;;;;;;2.55;1.13;;;;;;;;;;5011783;28;20064;-74
2022/12/20 13:29:57;;;;;;;1.73;1.10;;;12.80;60.50;;;;;;5011833;28;20140;-73
2022/12/20 13:32:53;;;;;;;3.17;1.02;;;13.00;57.80;;;;;;5012667;28;20053;-73
2022/12/20 13:35:44;;;;;;;1.77;1.10;;;13.00;61.20;;;;;;5026408;28;20473;-77
2022/12/20 13:38:26;;;;;;;1.20;1.02;;;;;;;;;;5044474;28;20056;-73
2022/12/20 13:40:55;;;;;;;1.70;1.20;;;;;;;;;;5050247;28;20458;-74
2022/12/20 13:43:26;;;;;;;2.25;1.20;;;13.10;61.00;;;;;;5051087;28;20071;-72
2022/12/20 13:45:55;;;;;;;1.20;1.10;;;13.10;61.00;;;;;;5051189;28;20060;-73
2022/12/20 13:48:30;;;;;;;1.70;1.20;;;13.20;60.90;;;;;;5048600;28;20053;-73
2022/12/20 13:50:57;;;;;;;1.08;0.90;;;;;;;;;;5032003;28;20152;-73
2022/12/20 13:53:26;;;;;;;1.20;1.10;;;;;;;;;;5030626;28;20486;-73
2022/12/20 13:55:54;;;;;;;1.35;1.15;;;;;;;;;;5041904;28;20076;-73
2022/12/20 13:58:22;;;;;;;1.30;1.10;;;;;;;;;;5034921;28;20054;-73
2022/12/20 14:00:49;;;;;;;1.38;1.10;;;;;;;;;;5038422;28;20045;-73
2022/12/20 14:03:20;;;;;;;1.48;1.10;;;13.30;60.30;;;;;;5049841;28;20052;-73
2022/12/20 14:05:47;;;;;;;1.15;1.00;;;;;;;;;;5042911;28;20065;-74
2022/12/20 14:08:15;;;;;;;1.70;1.13;;;13.40;58.10;;;;;;5032600;28;20077;-72
2022/12/20 14:10:42;;;;;;;3.03;1.10;;;;;;;;;;5019702;28;20054;-73
2022/12/20 14:13:18;;;;;;;1.67;1.13;;;13.50;60.20;;;;;;5021807;28;20053;-73
2022/12/20 14:15:46;;;;;;;1.80;1.20;;;;;;;;;;5050948;28;20120;-73
2022/12/20 14:18:17;;;;;;;1.10;1.00;;;13.50;58.50;;;;;;5051281;28;20469;-73
2022/12/20 14:20:44;;;;;;;0.88;0.88;;;;;;;;;;5052160;28;20462;-75
2022/12/20 14:23:11;;;;;;;1.20;1.10;;;;;;;;;;5049951;28;20412;-75
2022/12/20 14:25:42;;;;;;;1.50;1.05;;;13.50;60.00;;;;;;5050823;28;20063;-74
2022/12/20 14:28:11;;;;;;;1.20;1.00;;;;;;;;;;5050544;28;20501;-74
2022/12/20 14:30:43;;;;;;;1.70;1.08;;;;;;;;;;5032096;28;20104;-74
2022/12/20 14:33:17;;;;;;;1.00;0.90;;;;;;;;;;5029806;28;20124;-74
2022/12/20 14:35:47;;;;;;;1.10;1.00;;;13.50;59.90;;;;;;5030810;28;20573;-74
2022/12/20 14:38:19;;;;;;;1.25;1.00;;;;;;;;;;5011725;28;20052;-74